Time;durP1;ratioP1;P1;durP2;ratioP2;P2;SDS_P1;SDS_P2;PMS_P1;PMS_P2;Temp;Humidity;BMP_temperature;BMP_pressure;BME280_temperature;BME280_humidity;BME280_pressure;Samples;Min_cycle;Max_cycle;Signal;HPM_P1;HPM_P2
2022/04/13 00:02:06;;;;;;;25.13;8.30;;;14.20;99.90;;;;;;5054325;28;20393;-79
2022/04/13 00:04:32;;;;;;;19.08;7.90;;;14.10;99.90;;;;;;5054514;28;20032;-77
2022/04/13 00:06:58;;;;;;;19.75;8.27;;;14.20;99.90;;;;;;5054512;28;20554;-79
2022/04/13 00:09:24;;;;;;;16.25;8.23;;;14.40;99.90;;;;;;5054515;28;20044;-78
2022/04/13 00:11:52;;;;;;;20.10;8.35;;;14.20;99.90;;;;;;5054298;28;20492;-78
2022/04/13 00:14:22;;;;;;;17.98;8.75;;;14.20;99.90;;;;;;5053336;28;20508;-79
2022/04/13 00:16:49;;;;;;;17.95;9.07;;;14.40;99.90;;;;;;5054051;28;20048;-79
2022/04/13 00:19:15;;;;;;;18.00;7.95;;;14.30;99.90;;;;;;5054227;28;20040;-76
2022/04/13 00:21:40;;;;;;;23.67;8.73;;;14.40;99.90;;;;;;5054187;28;20021;-79
2022/04/13 00:24:06;;;;;;;21.92;8.15;;;14.50;99.90;;;;;;5053979;28;20120;-79
2022/04/13 00:26:33;;;;;;;19.40;7.38;;;14.70;99.90;;;;;;5054143;28;20028;-79
2022/04/13 00:28:59;;;;;;;15.02;7.25;;;14.50;99.90;;;;;;5053983;28;20108;-79
2022/04/13 00:31:24;;;;;;;20.35;8.10;;;14.50;99.90;;;;;;5053782;28;20075;-79
2022/04/13 00:33:50;;;;;;;11.40;8.02;;;14.50;99.90;;;;;;5053628;28;20053;-79
2022/04/13 00:36:16;;;;;;;16.00;8.02;;;14.50;99.90;;;;;;5054384;28;20082;-79
2022/04/13 00:38:42;;;;;;;17.70;7.78;;;14.60;99.90;;;;;;5052995;28;20083;-78
2022/04/13 00:41:07;;;;;;;21.30;9.32;;;14.90;99.90;;;;;;5053816;28;20040;-78
2022/04/13 00:43:33;;;;;;;21.65;7.75;;;15.10;99.90;;;;;;5052550;28;20021;-76
2022/04/13 00:45:59;;;;;;;14.02;7.28;;;15.10;99.90;;;;;;5053502;28;20025;-75
2022/04/13 00:48:34;;;;;;;19.85;8.18;;;15.10;99.90;;;;;;5052470;28;20078;-79
2022/04/13 00:51:00;;;;;;;16.83;8.52;;;14.90;99.90;;;;;;5053476;28;20056;-79
2022/04/13 00:53:27;;;;;;;21.08;8.73;;;14.70;99.90;;;;;;5053717;28;20029;-79
2022/04/13 00:55:57;;;;;;;22.08;7.40;;;14.80;99.90;;;;;;5053259;28;20029;-78
2022/04/13 00:58:28;;;;;;;18.15;7.53;;;14.90;99.90;;;;;;5053645;28;20492;-77
2022/04/13 01:00:55;;;;;;;20.00;7.78;;;14.80;99.90;;;;;;5053145;28;20040;-78
2022/04/13 01:03:24;;;;;;;21.77;8.88;;;14.80;99.90;;;;;;5053363;28;20032;-78
2022/04/13 01:05:51;;;;;;;20.35;7.95;;;14.70;99.90;;;;;;5053261;28;20029;-77
2022/04/13 01:08:18;;;;;;;22.27;7.55;;;14.80;99.90;;;;;;5053679;28;20044;-78
2022/04/13 01:10:50;;;;;;;19.25;7.80;;;14.70;99.90;;;;;;5053197;28;20490;-78
2022/04/13 01:13:17;;;;;;;13.13;7.15;;;14.80;99.90;;;;;;5053529;28;20032;-79
2022/04/13 01:15:43;;;;;;;18.38;9.13;;;14.90;99.90;;;;;;5052859;28;20473;-78
2022/04/13 01:18:09;;;;;;;22.25;8.00;;;15.00;99.90;;;;;;5053307;28;20377;-79
2022/04/13 01:20:39;;;;;;;11.23;7.50;;;15.00;99.90;;;;;;5053199;28;20021;-78
2022/04/13 01:23:06;;;;;;;16.63;7.47;;;14.90;99.90;;;;;;5053198;28;20036;-79
2022/04/13 01:25:32;;;;;;;16.65;7.68;;;14.70;99.90;;;;;;5052758;28;20068;-78
2022/04/13 01:27:58;;;;;;;14.02;7.65;;;14.40;99.90;;;;;;5052818;28;20048;-79
2022/04/13 01:30:24;;;;;;;14.50;7.32;;;14.40;99.90;;;;;;5051626;28;20033;-78
2022/04/13 01:32:53;;;;;;;16.30;6.95;;;14.40;99.90;;;;;;5052955;28;20025;-79
2022/04/13 01:35:22;;;;;;;21.23;7.55;;;14.50;99.90;;;;;;5051659;28;20035;-76
2022/04/13 01:37:48;;;;;;;20.55;7.85;;;14.60;99.90;;;;;;5052621;28;20535;-76
2022/04/13 01:40:13;;;;;;;14.90;7.43;;;14.60;99.90;;;;;;5051586;28;20022;-78
2022/04/13 01:42:39;;;;;;;16.60;8.05;;;14.70;99.90;;;;;;5052919;28;20036;-78
2022/04/13 01:45:05;;;;;;;17.85;7.78;;;14.80;99.90;;;;;;5051263;28;20024;-77
2022/04/13 01:47:31;;;;;;;13.45;7.15;;;14.70;99.90;;;;;;5052799;28;20025;-78
2022/04/13 01:49:59;;;;;;;15.48;7.78;;;14.80;99.90;;;;;;5052504;28;20076;-78
2022/04/13 01:52:25;;;;;;;13.75;7.88;;;14.70;99.90;;;;;;5052869;28;20017;-78
2022/04/13 01:54:50;;;;;;;16.42;7.78;;;14.60;99.90;;;;;;5052750;28;20124;-79
2022/04/13 01:57:17;;;;;;;18.88;7.65;;;14.60;99.90;;;;;;5052756;28;20032;-77
2022/04/13 01:59:42;;;;;;;23.00;8.73;;;14.80;99.90;;;;;;5040011;28;20030;-78
2022/04/13 02:02:08;;;;;;;18.08;7.25;;;14.90;99.90;;;;;;5034741;28;20474;-78
2022/04/13 02:04:34;;;;;;;19.88;7.95;;;14.80;99.90;;;;;;5052604;28;20377;-78
2022/04/13 02:07:00;;;;;;;17.63;7.63;;;14.80;99.90;;;;;;5052360;28;20025;-78
2022/04/13 02:09:26;;;;;;;17.33;7.88;;;14.70;99.90;;;;;;5052937;28;20037;-78
2022/04/13 02:11:51;;;;;;;20.52;7.90;;;14.50;99.90;;;;;;5052630;28;20120;-80
2022/04/13 02:14:17;;;;;;;20.38;8.93;;;14.50;99.90;;;;;;5052388;28;20506;-78
2022/04/13 02:16:43;;;;;;;21.35;8.35;;;14.60;99.90;;;;;;5052471;28;20025;-78
2022/04/13 02:19:11;;;;;;;21.15;8.50;;;14.60;99.90;;;;;;5052658;28;20021;-79
2022/04/13 02:21:37;;;;;;;17.38;8.25;;;14.60;99.90;;;;;;5052414;28;20059;-79
2022/04/13 02:24:04;;;;;;;16.90;7.60;;;14.50;99.90;;;;;;5051359;28;20036;-79
2022/04/13 02:26:29;;;;;;;13.88;7.57;;;14.30;99.90;;;;;;5052214;28;20033;-78
2022/04/13 02:28:55;;;;;;;18.65;9.23;;;14.40;99.90;;;;;;5052450;28;20094;-78
2022/04/13 02:31:21;;;;;;;15.60;7.65;;;14.50;99.90;;;;;;5052519;28;20084;-78
2022/04/13 02:33:47;;;;;;;20.42;8.57;;;14.60;99.90;;;;;;5052354;28;20029;-78
2022/04/13 02:36:14;;;;;;;16.45;8.15;;;14.60;99.90;;;;;;5052151;28;20018;-78
2022/04/13 02:38:39;;;;;;;14.30;8.40;;;14.60;99.90;;;;;;5052584;28;20397;-76
2022/04/13 02:41:05;;;;;;;20.70;8.23;;;14.40;99.90;;;;;;5051961;28;20104;-78
2022/04/13 02:43:31;;;;;;;19.35;9.48;;;14.30;99.90;;;;;;5051095;28;20087;-77
2022/04/13 02:45:57;;;;;;;21.85;8.40;;;14.30;99.90;;;;;;5052019;28;20488;-78
2022/04/13 02:48:23;;;;;;;22.92;8.35;;;14.20;99.90;;;;;;5052233;28;20098;-79
2022/04/13 02:50:49;;;;;;;18.45;8.63;;;14.20;99.90;;;;;;5052222;28;20044;-78
2022/04/13 02:53:15;;;;;;;31.35;9.00;;;14.30;99.90;;;;;;5052128;28;20377;-77
2022/04/13 02:55:42;;;;;;;25.63;8.80;;;14.00;99.90;;;;;;5051929;28;20045;-77
2022/04/13 02:58:08;;;;;;;23.58;9.88;;;13.90;99.90;;;;;;5052200;28;20389;-78
2022/04/13 03:00:34;;;;;;;26.58;9.77;;;13.90;99.90;;;;;;5052041;28;20029;-79
2022/04/13 03:03:00;;;;;;;25.63;10.60;;;14.10;99.90;;;;;;5054298;28;20033;-78
2022/04/13 03:05:26;;;;;;;20.42;9.82;;;14.20;99.90;;;;;;5055653;28;20025;-78
2022/04/13 03:07:51;;;;;;;17.25;8.77;;;14.20;99.90;;;;;;5055543;28;20040;-78
2022/04/13 03:10:17;;;;;;;28.02;10.82;;;14.40;99.90;;;;;;5055261;28;20401;-78
2022/04/13 03:12:43;;;;;;;22.77;9.55;;;14.40;99.90;;;;;;5055290;28;20035;-76
2022/04/13 03:15:10;;;;;;;22.70;10.13;;;14.50;99.90;;;;;;5054160;28;20029;-78
2022/04/13 03:17:36;;;;;;;33.85;10.18;;;14.50;99.90;;;;;;5037362;28;20524;-78
2022/04/13 03:20:02;;;;;;;28.23;9.90;;;14.60;99.90;;;;;;5055356;28;20047;-78
2022/04/13 03:22:28;;;;;;;15.38;9.18;;;14.30;99.90;;;;;;5055424;28;20088;-78
2022/04/13 03:24:54;;;;;;;22.33;10.00;;;14.20;99.90;;;;;;5055308;28;20128;-78
2022/04/13 03:27:20;;;;;;;23.15;11.02;;;13.90;99.90;;;;;;5055139;28;20474;-79
2022/04/13 03:29:46;;;;;;;24.20;10.75;;;13.60;99.90;;;;;;5055003;28;20037;-79
2022/04/13 03:32:11;;;;;;;21.08;10.43;;;13.50;99.90;;;;;;5055193;28;20066;-78
2022/04/13 03:34:37;;;;;;;21.85;10.75;;;13.50;99.90;;;;;;5055156;28;20085;-80
2022/04/13 03:37:03;;;;;;;25.27;11.32;;;13.40;99.90;;;;;;5054795;28;20171;-77
2022/04/13 03:39:30;;;;;;;24.77;11.52;;;13.50;99.90;;;;;;5054783;28;20021;-80
2022/04/13 03:41:56;;;;;;;16.20;9.80;;;13.80;99.90;;;;;;5054762;28;20028;-79
2022/04/13 03:44:22;;;;;;;23.80;11.07;;;13.80;99.90;;;;;;5054815;28;20028;-75
2022/04/13 03:46:48;;;;;;;20.40;10.88;;;13.70;99.90;;;;;;5053377;28;20028;-77
2022/04/13 03:49:14;;;;;;;23.85;10.63;;;13.90;99.90;;;;;;5054738;28;20115;-79
2022/04/13 03:51:41;;;;;;;24.55;11.20;;;13.80;99.90;;;;;;5054873;28;20084;-79
2022/04/13 03:54:07;;;;;;;17.70;10.88;;;13.70;99.90;;;;;;5054361;28;20458;-77
2022/04/13 03:56:33;;;;;;;22.27;11.50;;;13.70;99.90;;;;;;5054608;28;20040;-79
2022/04/13 03:59:03;;;;;;;26.48;11.85;;;13.70;99.90;;;;;;5054503;28;20033;-79
2022/04/13 04:01:28;;;;;;;24.05;11.63;;;13.50;99.90;;;;;;5054595;28;20025;-79
2022/04/13 04:03:54;;;;;;;30.80;11.60;;;13.30;99.90;;;;;;5052937;28;20104;-77
2022/04/13 04:06:20;;;;;;;20.55;11.15;;;13.60;99.90;;;;;;5054535;28;20033;-79
2022/04/13 04:08:46;;;;;;;22.50;10.88;;;13.60;99.90;;;;;;5052891;28;20021;-80
2022/04/13 04:11:12;;;;;;;21.23;11.13;;;13.30;99.90;;;;;;5054513;28;20037;-79
2022/04/13 04:13:38;;;;;;;23.50;12.68;;;13.40;99.90;;;;;;5053012;28;20017;-79
2022/04/13 04:16:04;;;;;;;23.55;11.77;;;13.60;99.90;;;;;;5054216;28;20036;-79
2022/04/13 04:18:30;;;;;;;29.55;12.80;;;13.50;99.90;;;;;;5054363;28;20029;-79
2022/04/13 04:20:56;;;;;;;26.90;12.98;;;13.50;99.90;;;;;;5054051;28;20096;-80
2022/04/13 04:23:22;;;;;;;32.03;13.73;;;13.60;99.90;;;;;;5053850;28;20116;-77
2022/04/13 04:25:48;;;;;;;26.75;12.10;;;13.60;99.90;;;;;;5053877;28;20392;-73
2022/04/13 04:28:14;;;;;;;27.83;12.27;;;13.60;99.90;;;;;;5053983;28;20065;-78
2022/04/13 04:30:41;;;;;;;22.27;12.77;;;13.60;99.90;;;;;;5053979;28;20133;-79
2022/04/13 04:33:08;;;;;;;22.50;12.45;;;13.60;99.90;;;;;;5053942;28;20076;-77
2022/04/13 04:35:35;;;;;;;26.63;13.05;;;13.70;99.90;;;;;;5053709;28;20028;-75
2022/04/13 04:38:01;;;;;;;26.75;14.13;;;13.70;99.90;;;;;;5053411;28;20120;-76
2022/04/13 04:40:27;;;;;;;23.45;13.18;;;13.50;99.90;;;;;;5053896;28;20075;-75
2022/04/13 04:42:54;;;;;;;25.58;13.43;;;13.50;99.90;;;;;;5052592;28;20068;-78
2022/04/13 04:45:21;;;;;;;30.30;14.38;;;13.60;99.90;;;;;;5053776;28;20103;-75
2022/04/13 04:47:47;;;;;;;27.70;14.20;;;13.70;99.90;;;;;;5053679;28;20009;-79
2022/04/13 04:50:14;;;;;;;22.50;13.70;;;13.40;99.90;;;;;;5053547;28;20169;-79
2022/04/13 04:52:44;;;;;;;32.30;14.00;;;13.30;99.90;;;;;;5053337;28;20021;-79
2022/04/13 04:55:11;;;;;;;29.33;13.93;;;13.30;99.90;;;;;;5053608;28;20079;-79
2022/04/13 04:57:38;;;;;;;23.27;13.10;;;13.30;99.90;;;;;;5053912;28;20086;-79
2022/04/13 05:00:08;;;;;;;28.13;13.70;;;13.30;99.90;;;;;;5053375;28;20025;-79
2022/04/13 05:02:35;;;;;;;30.02;13.15;;;13.10;99.90;;;;;;5053126;28;20389;-80
2022/04/13 05:05:02;;;;;;;33.85;13.68;;;12.90;99.90;;;;;;5052090;28;20036;-79
2022/04/13 05:07:27;;;;;;;28.67;13.68;;;13.10;99.90;;;;;;5053145;28;20025;-78
2022/04/13 05:09:53;;;;;;;31.67;14.38;;;13.30;99.90;;;;;;5051945;28;20439;-79
2022/04/13 05:12:19;;;;;;;23.13;12.38;;;13.20;99.90;;;;;;5053353;28;20036;-79
2022/04/13 05:14:44;;;;;;;24.38;13.30;;;13.20;99.90;;;;;;5052004;28;20029;-79
2022/04/13 05:17:10;;;;;;;26.92;14.02;;;13.10;99.90;;;;;;5053272;28;20021;-80
2022/04/13 05:19:36;;;;;;;33.88;14.20;;;13.20;99.90;;;;;;5051751;28;20482;-78
2022/04/13 05:22:02;;;;;;;31.58;13.55;;;13.30;99.90;;;;;;5052942;28;20048;-79
2022/04/13 05:24:28;;;;;;;28.90;14.15;;;13.30;99.90;;;;;;5052702;28;20021;-79
2022/04/13 05:26:53;;;;;;;27.80;14.70;;;13.50;99.90;;;;;;5051700;28;20033;-78
2022/04/13 05:29:21;;;;;;;29.00;15.05;;;13.40;99.90;;;;;;5053036;28;20032;-79
2022/04/13 05:31:47;;;;;;;29.98;15.65;;;13.40;99.90;;;;;;5052908;28;20555;-79
2022/04/13 05:34:12;;;;;;;26.38;15.88;;;13.60;99.90;;;;;;5052925;28;20053;-77
2022/04/13 05:36:38;;;;;;;20.90;14.40;;;13.70;99.90;;;;;;5052959;28;20454;-79
2022/04/13 05:39:04;;;;;;;30.58;15.73;;;13.70;99.90;;;;;;5052984;28;20045;-78
2022/04/13 05:41:30;;;;;;;32.25;14.52;;;13.90;99.90;;;;;;5052739;28;20029;-77
2022/04/13 05:43:56;;;;;;;31.63;14.80;;;13.50;99.90;;;;;;5052773;28;20028;-78
2022/04/13 05:46:21;;;;;;;35.03;14.68;;;13.40;99.90;;;;;;5052711;28;20044;-79
2022/04/13 05:48:47;;;;;;;30.20;15.77;;;13.40;99.90;;;;;;5052656;28;20105;-79
2022/04/13 05:51:13;;;;;;;34.22;15.88;;;13.80;99.90;;;;;;5052316;28;20040;-79
2022/04/13 05:53:39;;;;;;;34.45;16.05;;;13.90;99.90;;;;;;5052817;28;20029;-79
2022/04/13 05:56:05;;;;;;;34.05;16.73;;;13.60;99.90;;;;;;5052462;28;20021;-79
2022/04/13 05:58:31;;;;;;;33.65;15.68;;;13.40;99.90;;;;;;5051575;28;20401;-79
2022/04/13 06:00:57;;;;;;;30.77;16.67;;;13.30;99.90;;;;;;5052594;28;20025;-78
2022/04/13 06:03:23;;;;;;;34.78;18.10;;;13.50;99.90;;;;;;5052607;28;20508;-79
2022/04/13 06:05:51;;;;;;;34.13;17.30;;;13.80;99.90;;;;;;5052357;28;20017;-77
2022/04/13 06:08:17;;;;;;;45.67;18.90;;;14.00;99.90;;;;;;5052638;28;20055;-79
2022/04/13 06:10:43;;;;;;;29.48;16.48;;;14.00;99.90;;;;;;5051005;28;20509;-77
2022/04/13 06:13:09;;;;;;;30.25;15.55;;;14.10;99.90;;;;;;5052677;28;20013;-78
2022/04/13 06:15:35;;;;;;;41.05;15.88;;;14.20;99.90;;;;;;5052473;28;20021;-79
2022/04/13 06:18:00;;;;;;;36.08;16.40;;;14.00;99.90;;;;;;5052976;28;20378;-78
2022/04/13 06:20:26;;;;;;;31.27;15.30;;;13.80;99.90;;;;;;5052506;28;20524;-79
2022/04/13 06:22:52;;;;;;;33.70;15.38;;;13.80;99.90;;;;;;5051256;28;20021;-79
2022/04/13 06:25:18;;;;;;;28.05;15.45;;;13.50;99.90;;;;;;5052468;28;20029;-79
2022/04/13 06:27:44;;;;;;;27.38;16.38;;;13.60;99.90;;;;;;5052339;28;20037;-79
2022/04/13 06:30:12;;;;;;;39.33;16.10;;;13.90;99.90;;;;;;5052336;28;20025;-79
2022/04/13 06:32:40;;;;;;;35.90;16.13;;;14.20;99.90;;;;;;5034389;28;20535;-78
2022/04/13 06:35:08;;;;;;;26.52;15.75;;;14.30;99.90;;;;;;5052098;28;20044;-78
2022/04/13 06:37:39;;;;;;;36.42;16.77;;;14.60;99.90;;;;;;5054014;28;20040;-79
2022/04/13 06:40:05;;;;;;;35.92;15.70;;;14.70;99.90;;;;;;5055123;28;20416;-79
2022/04/13 06:42:38;;;;;;;26.42;15.43;;;14.60;99.90;;;;;;5056039;28;20483;-78
2022/04/13 06:45:06;;;;;;;28.83;15.07;;;14.80;99.90;;;;;;5055819;28;20048;-80
2022/04/13 06:47:31;;;;;;;24.65;14.50;;;14.90;99.90;;;;;;5055605;28;20394;-78
2022/04/13 06:49:57;;;;;;;35.30;15.88;;;14.70;99.90;;;;;;5055992;28;20029;-79
2022/04/13 06:52:23;;;;;;;25.98;14.52;;;14.70;99.90;;;;;;5055934;28;20346;-72
2022/04/13 06:54:49;;;;;;;31.23;15.00;;;14.40;99.90;;;;;;5055772;28;20029;-79
2022/04/13 06:57:15;;;;;;;27.80;14.35;;;14.50;99.90;;;;;;5055726;28;20036;-79
2022/04/13 06:59:40;;;;;;;29.38;14.25;;;14.60;99.90;;;;;;5055916;28;20021;-79
2022/04/13 07:02:10;;;;;;;24.92;13.73;;;14.70;99.90;;;;;;5055261;28;20443;-79
2022/04/13 07:04:37;;;;;;;27.73;12.30;;;14.80;99.90;;;;;;5055709;28;20473;-78
2022/04/13 07:07:03;;;;;;;24.33;12.43;;;14.70;99.90;;;;;;5055264;28;20478;-79
2022/04/13 07:09:29;;;;;;;30.92;13.13;;;14.80;99.90;;;;;;5055600;28;20074;-78
2022/04/13 07:11:54;;;;;;;24.88;12.75;;;14.70;99.90;;;;;;5054156;28;20445;-81
2022/04/13 07:14:20;;;;;;;26.52;14.75;;;14.60;99.90;;;;;;5055444;28;20053;-79
2022/04/13 07:16:46;;;;;;;26.90;12.90;;;14.60;99.90;;;;;;5055241;28;20477;-79
2022/04/13 07:19:12;;;;;;;39.30;14.18;;;14.60;99.90;;;;;;5055292;28;20044;-78
2022/04/13 07:21:37;;;;;;;20.02;12.32;;;14.70;99.90;;;;;;5054387;28;20029;-80
2022/04/13 07:24:03;;;;;;;35.38;14.48;;;14.70;99.90;;;;;;5055196;28;20060;-78
2022/04/13 07:26:29;;;;;;;29.90;15.00;;;14.80;99.90;;;;;;5053930;28;20497;-79
2022/04/13 07:28:55;;;;;;;29.42;13.05;;;14.70;99.90;;;;;;5054902;28;20025;-78
2022/04/13 07:31:20;;;;;;;24.83;14.85;;;14.40;99.90;;;;;;5054980;28;20087;-79
2022/04/13 07:33:46;;;;;;;32.55;16.25;;;14.40;99.90;;;;;;5054932;28;20040;-79
2022/04/13 07:36:12;;;;;;;28.48;14.80;;;14.60;99.90;;;;;;5054286;28;20032;-78
2022/04/13 07:38:38;;;;;;;25.15;13.43;;;14.90;99.90;;;;;;5055036;28;20017;-80
2022/04/13 07:41:04;;;;;;;39.60;14.65;;;14.80;99.90;;;;;;5054926;28;20025;-79
2022/04/13 07:43:30;;;;;;;33.20;14.15;;;14.80;99.90;;;;;;5054850;28;20494;-71
2022/04/13 07:45:56;;;;;;;31.20;14.93;;;14.40;99.90;;;;;;5053435;28;20025;-79
2022/04/13 07:48:22;;;;;;;28.63;14.43;;;14.50;99.90;;;;;;5054422;28;20025;-78
2022/04/13 07:50:49;;;;;;;35.00;14.80;;;14.50;99.90;;;;;;5054756;28;20183;-78
2022/04/13 07:53:14;;;;;;;33.65;14.60;;;14.80;99.90;;;;;;5054699;28;20482;-80
2022/04/13 07:55:40;;;;;;;26.50;12.25;;;15.10;99.90;;;;;;5054940;28;20478;-80
2022/04/13 07:58:06;;;;;;;25.35;13.27;;;15.60;99.90;;;;;;5054746;28;20029;-78
2022/04/13 08:00:33;;;;;;;25.60;14.07;;;15.40;99.90;;;;;;5054503;28;20029;-80
2022/04/13 08:02:58;;;;;;;34.30;12.27;;;15.10;99.90;;;;;;5054471;28;20047;-79
2022/04/13 08:05:25;;;;;;;22.85;13.75;;;14.90;99.90;;;;;;5054663;28;20021;-80
2022/04/13 08:07:50;;;;;;;30.33;12.98;;;14.90;99.90;;;;;;5053238;28;20474;-80
2022/04/13 08:10:17;;;;;;;23.83;11.77;;;15.00;99.90;;;;;;5054194;28;20044;-79
2022/04/13 08:12:46;;;;;;;29.23;13.07;;;15.00;99.90;;;;;;5054430;28;20029;-79
2022/04/13 08:15:12;;;;;;;32.40;12.77;;;15.00;99.90;;;;;;5054177;28;20421;-80
2022/04/13 08:17:39;;;;;;;28.50;13.90;;;15.00;99.90;;;;;;5054290;28;20047;-79
2022/04/13 08:20:07;;;;;;;29.23;12.68;;;15.20;99.90;;;;;;5053029;28;20036;-79
2022/04/13 08:22:34;;;;;;;35.03;13.88;;;15.00;99.90;;;;;;5054311;28;20033;-80
2022/04/13 08:24:59;;;;;;;26.00;13.75;;;14.90;99.90;;;;;;5054015;28;20060;-80
2022/04/13 08:27:25;;;;;;;35.28;14.80;;;14.80;99.90;;;;;;5052720;28;20057;-80
2022/04/13 08:29:51;;;;;;;28.60;13.63;;;14.80;99.90;;;;;;5053588;28;20069;-80
2022/04/13 08:32:20;;;;;;;24.42;13.32;;;14.60;99.90;;;;;;5054068;28;20497;-77
2022/04/13 08:34:48;;;;;;;25.52;13.85;;;14.60;99.90;;;;;;5053761;28;20052;-74
2022/04/13 08:37:14;;;;;;;30.13;13.82;;;14.80;99.90;;;;;;5054065;28;20029;-75
2022/04/13 08:39:40;;;;;;;28.25;13.70;;;14.80;99.90;;;;;;5053980;28;20044;-76
2022/04/13 08:42:12;;;;;;;23.88;11.90;;;15.00;99.90;;;;;;5053624;28;20102;-77
2022/04/13 08:44:38;;;;;;;24.63;12.70;;;14.90;99.90;;;;;;5053503;28;20163;-75
2022/04/13 08:47:11;;;;;;;27.55;13.65;;;15.00;99.90;;;;;;5053582;28;20100;-73
2022/04/13 08:49:40;;;;;;;27.58;14.68;;;15.00;99.90;;;;;;5053514;28;20397;-75
2022/04/13 08:52:08;;;;;;;23.75;12.98;;;15.20;99.90;;;;;;5053614;28;20181;-75
2022/04/13 08:54:57;;;;;;;22.33;11.98;;;15.40;99.90;;;;;;5052171;28;20013;-75
2022/04/13 08:57:27;;;;;;;26.10;11.93;;;15.60;99.90;;;;;;5053664;28;20032;-78
2022/04/13 09:00:13;;;;;;;29.17;13.35;;;15.60;99.90;;;;;;5052377;28;20454;-73
2022/04/13 09:02:52;;;;;;;22.00;12.27;;;15.40;99.90;;;;;;5053425;28;20024;-74
2022/04/13 09:05:23;;;;;;;25.05;12.85;;;15.40;99.90;;;;;;5053242;28;20420;-74
2022/04/13 09:08:05;;;;;;;27.65;13.75;;;15.10;99.90;;;;;;5053483;28;20044;-75
2022/04/13 09:10:32;;;;;;;24.05;12.90;;;15.30;99.90;;;;;;5052121;28;20056;-73
2022/04/13 09:12:58;;;;;;;26.90;13.43;;;15.30;99.90;;;;;;5052744;28;20056;-76
2022/04/13 09:15:25;;;;;;;24.48;14.38;;;15.40;99.90;;;;;;5053133;28;20087;-72
2022/04/13 09:17:51;;;;;;;32.40;16.75;;;15.30;99.90;;;;;;5053247;28;20048;-76
2022/04/13 09:20:17;;;;;;;34.30;16.70;;;15.30;99.90;;;;;;5051762;28;20435;-77
2022/04/13 09:22:43;;;;;;;32.85;15.98;;;15.20;99.90;;;;;;5053155;28;20017;-73
2022/04/13 09:25:10;;;;;;;42.35;19.08;;;15.30;99.90;;;;;;5052850;28;20478;-78
2022/04/13 09:27:38;;;;;;;29.75;16.52;;;15.60;99.90;;;;;;5052724;28;20037;-72
2022/04/13 09:30:06;;;;;;;38.53;17.85;;;15.70;99.90;;;;;;5052971;28;20138;-74
2022/04/13 09:32:32;;;;;;;37.20;19.38;;;15.50;99.90;;;;;;5053139;28;20032;-78
2022/04/13 09:34:59;;;;;;;41.33;21.05;;;15.50;99.90;;;;;;5052829;28;20047;-79
2022/04/13 09:37:26;;;;;;;34.05;17.92;;;15.60;99.90;;;;;;5052793;28;20098;-78
2022/04/13 09:39:51;;;;;;;38.38;19.13;;;15.90;99.90;;;;;;5052649;28;20039;-80
2022/04/13 09:42:18;;;;;;;39.33;18.33;;;15.80;99.90;;;;;;5052457;28;20029;-79
2022/04/13 09:44:56;;;;;;;37.30;18.77;;;15.90;99.90;;;;;;5052898;28;20037;-80
2022/04/13 09:47:29;;;;;;;45.42;20.25;;;15.80;99.90;;;;;;5052655;28;20036;-80
2022/04/13 09:49:56;;;;;;;39.38;21.35;;;16.10;99.90;;;;;;5052755;28;20080;-80
2022/04/13 09:52:41;;;;;;;33.28;19.30;;;16.00;99.90;;;;;;5052557;28;20049;-78
2022/04/13 09:55:08;;;;;;;33.85;18.92;;;15.60;99.90;;;;;;5034918;28;20037;-80
2022/04/13 09:57:34;;;;;;;32.47;19.73;;;15.60;99.90;;;;;;5052259;28;20029;-79
2022/04/13 10:00:05;;;;;;;40.85;22.23;;;16.00;99.90;;;;;;5052647;28;20096;-78
2022/04/13 10:02:38;;;;;;;38.40;20.83;;;15.70;99.90;;;;;;5052500;28;20088;-77
2022/04/13 10:05:09;;;;;;;45.40;20.77;;;16.20;99.90;;;;;;5052350;28;20075;-79
2022/04/13 10:07:36;;;;;;;37.70;20.77;;;15.90;99.90;;;;;;5052333;28;20033;-80
2022/04/13 10:10:03;;;;;;;45.28;22.77;;;16.10;99.90;;;;;;5052540;28;20033;-79
2022/04/13 10:12:47;;;;;;;48.35;24.13;;;15.80;99.90;;;;;;5055668;28;20043;-79
2022/04/13 10:15:13;;;;;;;35.33;20.73;;;15.60;99.90;;;;;;5056502;28;20090;-80
2022/04/13 10:17:39;;;;;;;41.00;23.08;;;15.70;99.90;;;;;;5055158;28;20521;-79
2022/04/13 10:20:05;;;;;;;40.42;22.33;;;15.90;99.90;;;;;;5056650;28;20108;-80
2022/04/13 10:22:31;;;;;;;42.83;22.38;;;15.60;99.90;;;;;;5056242;28;20478;-80
2022/04/13 10:25:16;;;;;;;40.95;21.17;;;16.00;99.90;;;;;;5055927;28;20036;-79
2022/04/13 10:27:56;;;;;;;46.05;22.40;;;15.60;99.90;;;;;;5056135;28;20064;-79
2022/04/13 10:30:27;;;;;;;44.25;23.75;;;15.50;99.90;;;;;;5056299;28;20049;-78
2022/04/13 10:33:00;;;;;;;47.53;26.00;;;15.40;99.90;;;;;;5056149;28;20470;-79
2022/04/13 10:35:28;;;;;;;45.45;23.58;;;15.40;99.90;;;;;;5056190;28;20021;-79
2022/04/13 10:37:55;;;;;;;45.78;22.70;;;15.50;99.90;;;;;;5054544;28;20040;-79
2022/04/13 10:40:23;;;;;;;34.60;21.33;;;15.40;99.90;;;;;;5055915;28;20070;-79
2022/04/13 10:42:51;;;;;;;41.70;22.10;;;15.20;99.90;;;;;;5056236;28;20052;-79
2022/04/13 10:45:17;;;;;;;36.53;21.90;;;15.20;99.90;;;;;;5056059;28;20017;-80
2022/04/13 10:48:04;;;;;;;36.97;20.77;;;14.90;99.90;;;;;;5055667;28;20025;-79
2022/04/13 10:50:41;;;;;;;45.13;23.15;;;15.10;99.90;;;;;;5054583;28;20033;-81
2022/04/13 10:53:14;;;;;;;43.13;23.88;;;15.10;99.90;;;;;;5055752;28;20033;-81
2022/04/13 10:55:41;;;;;;;37.33;21.90;;;15.10;99.90;;;;;;5055442;28;20041;-82
2022/04/13 10:58:19;;;;;;;33.17;21.52;;;15.10;99.90;;;;;;5055766;28;20052;-83
2022/04/13 11:00:46;;;;;;;42.33;22.15;;;15.00;99.90;;;;;;5056180;28;20079;-82
2022/04/13 11:03:14;;;;;;;53.42;25.15;;;15.00;99.90;;;;;;5055662;28;20033;-83
2022/04/13 11:05:41;;;;;;;41.05;22.67;;;15.20;99.90;;;;;;5056170;28;20028;-83
2022/04/13 11:08:23;;;;;;;33.65;21.85;;;15.20;99.90;;;;;;5055767;28;20025;-83
2022/04/13 11:10:52;;;;;;;39.42;21.75;;;15.10;99.90;;;;;;5055361;28;20505;-83
2022/04/13 11:13:19;;;;;;;37.80;22.00;;;15.20;99.90;;;;;;5055720;28;20059;-83
2022/04/13 11:15:50;;;;;;;35.40;22.25;;;15.40;99.90;;;;;;5055648;28;20025;-83
2022/04/13 11:18:17;;;;;;;35.30;22.08;;;15.40;99.90;;;;;;5055494;28;20029;-83
2022/04/13 11:20:58;;;;;;;43.30;23.02;;;15.20;99.90;;;;;;5055403;28;20412;-82
2022/04/13 11:23:43;;;;;;;32.53;19.55;;;15.30;99.90;;;;;;5054448;28;20120;-83
2022/04/13 11:26:09;;;;;;;42.38;20.10;;;15.70;99.90;;;;;;5053947;28;20032;-83
2022/04/13 11:28:35;;;;;;;35.08;18.38;;;15.70;99.90;;;;;;5055145;28;20044;-83
2022/04/13 11:31:09;;;;;;;36.83;19.13;;;15.80;99.90;;;;;;5055298;28;20512;-83
2022/04/13 11:33:50;;;;;;;32.08;18.75;;;15.80;99.90;;;;;;5054922;28;20120;-82
2022/04/13 11:36:16;;;;;;;30.38;19.63;;;16.60;99.90;;;;;;5053976;28;20036;-84
2022/04/13 11:38:53;;;;;;;31.75;19.42;;;16.90;99.90;;;;;;5054743;28;20033;-82
2022/04/13 11:41:21;;;;;;;31.15;19.67;;;17.20;99.90;;;;;;5055014;28;20029;-80
2022/04/13 11:43:47;;;;;;;29.85;21.20;;;17.40;99.90;;;;;;5054725;28;20029;-83
2022/04/13 11:46:35;;;;;;;39.42;19.65;;;17.30;99.90;;;;;;5055044;28;20253;-82
2022/04/13 11:49:01;;;;;;;28.20;18.75;;;16.40;99.90;;;;;;5054803;28;20389;-82
2022/04/13 11:51:31;;;;;;;32.63;20.35;;;16.50;99.90;;;;;;5053467;28;20037;-83
2022/04/13 11:54:16;;;;;;;30.17;19.65;;;16.60;99.90;;;;;;5054611;28;20367;-82
2022/04/13 11:56:49;;;;;;;33.50;20.70;;;16.10;99.90;;;;;;5054553;28;20045;-81
2022/04/13 11:59:16;;;;;;;34.35;21.00;;;15.90;99.90;;;;;;5054621;28;20037;-83
2022/04/13 12:01:55;;;;;;;30.15;21.95;;;15.90;99.90;;;;;;5054666;28;20566;-83
2022/04/13 12:04:24;;;;;;;34.65;21.92;;;16.20;99.90;;;;;;5034651;28;20057;-83
2022/04/13 12:06:51;;;;;;;30.75;21.38;;;16.40;99.90;;;;;;5034665;28;20026;-83
2022/04/13 12:09:16;;;;;;;35.47;21.75;;;16.40;99.90;;;;;;5034676;28;20069;-82
2022/04/13 12:11:46;;;;;;;34.78;22.48;;;16.20;99.90;;;;;;5034558;28;20061;-81
2022/04/13 12:14:26;;;;;;;37.33;21.50;;;15.80;99.90;;;;;;5034594;28;20478;-80
2022/04/13 12:16:55;;;;;;;34.05;22.05;;;15.90;99.90;;;;;;5033186;28;20406;-80
2022/04/13 12:19:21;;;;;;;29.08;21.25;;;16.10;99.90;;;;;;5034585;28;20028;-82
2022/04/13 12:21:46;;;;;;;35.63;23.38;;;16.20;99.90;;;;;;5034462;28;20112;-83
2022/04/13 12:24:12;;;;;;;34.72;20.83;;;16.10;99.90;;;;;;5034315;28;20032;-82
2022/04/13 12:26:44;;;;;;;34.70;23.05;;;16.10;99.90;;;;;;5034203;28;20486;-80
2022/04/13 12:29:22;;;;;;;29.85;21.85;;;16.20;99.90;;;;;;5032864;28;20037;-83
2022/04/13 12:31:52;;;;;;;33.22;20.63;;;16.40;99.90;;;;;;5034153;28;20029;-79
2022/04/13 12:34:20;;;;;;;29.13;20.95;;;16.50;99.90;;;;;;5033297;28;20044;-78